createdAt,value
2023-01-26T00:00:34.281Z,99.99
2023-01-26T00:01:34.254Z,99.99
2023-01-26T00:02:34.368Z,99.99
2023-01-26T00:03:34.355Z,99.99
2023-01-26T00:04:34.295Z,99.99
2023-01-26T00:05:34.217Z,99.99
2023-01-26T00:06:34.222Z,99.99
2023-01-26T00:07:34.260Z,99.99
2023-01-26T00:08:34.159Z,99.99
2023-01-26T00:09:34.232Z,99.99
2023-01-26T00:10:34.180Z,99.99
2023-01-26T00:11:34.125Z,99.99
2023-01-26T00:12:34.114Z,99.99
2023-01-26T00:13:34.169Z,99.99
2023-01-26T00:14:34.141Z,99.99
2023-01-26T00:15:34.160Z,99.99
2023-01-26T00:16:34.106Z,99.99
2023-01-26T00:17:34.064Z,99.99
2023-01-26T00:18:34.079Z,99.99
2023-01-26T00:19:34.083Z,99.99
2023-01-26T00:20:34.063Z,99.99
2023-01-26T00:21:34.035Z,99.99
2023-01-26T00:22:34.017Z,99.99
2023-01-26T00:23:34.014Z,99.99
2023-01-26T00:24:34.131Z,99.99
2023-01-26T00:25:33.994Z,99.99
2023-01-26T00:26:33.968Z,99.99
2023-01-26T00:27:33.956Z,99.99
2023-01-26T00:28:33.953Z,99.99
2023-01-26T00:29:34.030Z,99.99
2023-01-26T00:30:34.063Z,99.99
2023-01-26T00:31:34.012Z,99.99
2023-01-26T00:32:33.911Z,99.99
2023-01-26T00:33:33.924Z,99.99
2023-01-26T00:34:33.914Z,99.99
2023-01-26T00:35:33.881Z,99.99
2023-01-26T00:36:33.932Z,99.99
2023-01-26T00:37:33.917Z,99.99
2023-01-26T00:38:33.844Z,99.99
2023-01-26T00:39:33.847Z,99.99
2023-01-26T00:40:33.819Z,99.99
2023-01-26T00:41:33.829Z,99.99
2023-01-26T00:42:33.869Z,99.99
2023-01-26T00:43:33.828Z,99.99
2023-01-26T00:44:33.843Z,99.99
2023-01-26T00:45:33.802Z,99.99
2023-01-26T00:46:33.807Z,99.99
2023-01-26T00:47:33.760Z,99.99
2023-01-26T00:48:33.736Z,99.99
2023-01-26T00:49:33.768Z,99.99
2023-01-26T00:50:33.737Z,99.99
2023-01-26T00:51:33.775Z,99.99
2023-01-26T00:52:33.750Z,99.99
2023-01-26T00:53:33.722Z,99.99
2023-01-26T00:54:33.717Z,99.99
2023-01-26T00:55:33.744Z,99.99
2023-01-26T00:56:33.667Z,99.99
2023-01-26T00:57:33.712Z,99.99
2023-01-26T00:58:33.637Z,99.99
2023-01-26T00:59:33.624Z,99.99
2023-01-26T01:00:33.708Z,99.99
2023-01-26T01:01:33.666Z,99.99
2023-01-26T01:02:33.587Z,99.99
2023-01-26T01:03:33.579Z,99.99
2023-01-26T01:04:33.580Z,99.99
2023-01-26T01:05:33.683Z,99.99
2023-01-26T01:06:33.547Z,99.99
2023-01-26T01:07:33.565Z,99.99
2023-01-26T01:08:33.543Z,99.99
2023-01-26T01:09:33.538Z,99.99
2023-01-26T01:10:33.506Z,99.99
2023-01-26T01:11:33.589Z,99.99
2023-01-26T01:12:33.596Z,99.99
2023-01-26T01:13:33.547Z,99.99
2023-01-26T01:14:33.570Z,99.99
2023-01-26T01:15:33.475Z,99.99
2023-01-26T01:16:33.449Z,99.99
2023-01-26T01:17:33.442Z,99.99
2023-01-26T01:18:33.425Z,99.99
2023-01-26T01:19:33.460Z,99.99
2023-01-26T01:20:33.444Z,99.99
2023-01-26T01:21:33.439Z,99.99
2023-01-26T01:22:33.383Z,99.99
2023-01-26T01:23:33.392Z,99.99
2023-01-26T01:24:33.387Z,99.99
2023-01-26T01:25:33.347Z,99.99
2023-01-26T01:26:33.336Z,99.99
2023-01-26T01:27:33.354Z,99.99
2023-01-26T01:28:33.339Z,99.99
2023-01-26T01:29:33.359Z,99.99
2023-01-26T01:30:33.302Z,99.99
2023-01-26T01:31:33.374Z,99.99
2023-01-26T01:32:33.287Z,99.99
2023-01-26T01:33:33.279Z,99.99
2023-01-26T01:34:33.312Z,99.99
2023-01-26T01:35:33.272Z,99.99
2023-01-26T01:36:33.255Z,99.99
2023-01-26T01:37:33.216Z,99.99
2023-01-26T01:38:33.215Z,99.99
2023-01-26T01:39:33.211Z,99.99
2023-01-26T01:40:33.197Z,99.99
2023-01-26T01:41:33.179Z,99.99
2023-01-26T01:42:33.214Z,99.99
2023-01-26T01:43:33.174Z,99.99
2023-01-26T01:44:33.191Z,99.99
2023-01-26T01:45:33.166Z,99.99
2023-01-26T01:46:33.178Z,99.99
2023-01-26T01:47:33.159Z,99.99
2023-01-26T01:48:33.107Z,99.99
2023-01-26T01:49:33.104Z,99.99
2023-01-26T01:50:33.088Z,99.99
2023-01-26T01:51:33.075Z,99.99
2023-01-26T01:52:33.062Z,99.99
2023-01-26T01:53:33.121Z,99.99
2023-01-26T01:54:33.051Z,99.99
2023-01-26T01:55:33.029Z,99.99
2023-01-26T01:56:33.020Z,99.99
2023-01-26T01:57:33.044Z,99.99
2023-01-26T01:58:33.010Z,99.99
2023-01-26T01:59:33.137Z,99.99
2023-01-26T02:00:33.037Z,99.99
2023-01-26T02:01:32.990Z,99.99
2023-01-26T02:02:32.958Z,99.99
2023-01-26T02:03:32.959Z,99.99
2023-01-26T02:04:32.977Z,99.99
2023-01-26T02:05:32.936Z,99.99
2023-01-26T02:06:32.935Z,99.99
2023-01-26T02:07:33.023Z,99.99
2023-01-26T02:08:32.894Z,99.99
2023-01-26T02:09:33.020Z,99.99
2023-01-26T02:10:32.953Z,99.99
2023-01-26T02:11:32.860Z,99.99
2023-01-26T02:12:32.854Z,99.99
2023-01-26T02:13:32.852Z,99.99
2023-01-26T02:14:32.878Z,99.99
2023-01-26T02:15:33.020Z,99.99
2023-01-26T02:16:32.946Z,99.99
2023-01-26T02:17:32.873Z,99.99
2023-01-26T02:18:32.858Z,99.99
2023-01-26T02:19:32.936Z,99.99
2023-01-26T02:20:32.773Z,99.99
2023-01-26T02:21:32.882Z,99.99
2023-01-26T02:22:32.755Z,99.99
2023-01-26T02:23:32.753Z,99.99
2023-01-26T02:24:32.775Z,99.99
2023-01-26T02:25:32.765Z,99.99
2023-01-26T02:26:32.712Z,99.99
2023-01-26T02:27:32.749Z,99.99
2023-01-26T02:28:32.704Z,99.99
2023-01-26T02:29:32.684Z,99.99
2023-01-26T02:30:32.685Z,99.99
2023-01-26T02:31:32.687Z,99.99
2023-01-26T02:32:32.642Z,99.99
2023-01-26T02:33:32.663Z,99.99
2023-01-26T02:34:32.662Z,99.99
2023-01-26T02:35:32.608Z,99.99
2023-01-26T02:36:32.616Z,99.99
2023-01-26T02:37:32.584Z,99.99
2023-01-26T02:38:32.576Z,99.99
2023-01-26T02:39:32.603Z,99.99
2023-01-26T02:40:32.558Z,99.99
2023-01-26T02:41:32.589Z,99.99
2023-01-26T02:42:32.534Z,99.99
2023-01-26T02:43:32.516Z,99.99
2023-01-26T02:44:32.569Z,99.99
2023-01-26T02:45:32.520Z,99.99
2023-01-26T02:46:32.602Z,99.99
2023-01-26T02:47:32.475Z,99.99
2023-01-26T02:48:32.463Z,99.99
2023-01-26T02:49:32.495Z,99.99
2023-01-26T02:50:32.450Z,99.99
2023-01-26T02:51:32.555Z,99.99
2023-01-26T02:52:32.424Z,99.99
2023-01-26T02:53:32.410Z,99.99
2023-01-26T02:54:32.421Z,99.99
2023-01-26T02:55:32.396Z,99.99
2023-01-26T02:56:32.381Z,99.99
2023-01-26T02:57:32.406Z,99.99
2023-01-26T02:58:32.368Z,99.99
2023-01-26T02:59:32.401Z,99.99
2023-01-26T03:00:32.396Z,99.99
2023-01-26T03:01:32.652Z,99.99
2023-01-26T03:02:32.341Z,99.99
2023-01-26T03:03:32.320Z,99.99
2023-01-26T03:04:32.323Z,99.99
2023-01-26T03:05:32.337Z,99.99
2023-01-26T03:06:32.293Z,99.99
2023-01-26T03:07:32.275Z,99.99
2023-01-26T03:08:32.252Z,99.99
2023-01-26T03:09:32.267Z,99.99
2023-01-26T03:10:32.239Z,99.99
2023-01-26T03:11:32.286Z,99.99
2023-01-26T03:12:32.208Z,99.99
2023-01-26T03:13:32.209Z,99.99
2023-01-26T03:14:32.205Z,99.99
2023-01-26T03:15:32.182Z,99.99
2023-01-26T03:16:32.213Z,99.99
2023-01-26T03:17:32.187Z,99.99
2023-01-26T03:18:32.176Z,99.99
2023-01-26T03:19:32.174Z,99.99
2023-01-26T03:20:32.138Z,99.99
2023-01-26T03:21:32.139Z,99.99
2023-01-26T03:22:32.104Z,99.99
2023-01-26T03:23:32.103Z,99.99
2023-01-26T03:24:32.145Z,99.99
2023-01-26T03:25:32.133Z,99.99
2023-01-26T03:26:32.064Z,99.99
2023-01-26T03:27:32.077Z,99.99
2023-01-26T03:28:32.047Z,99.99
2023-01-26T03:29:32.079Z,99.99
2023-01-26T03:30:32.041Z,99.99
2023-01-26T03:31:32.045Z,99.99
2023-01-26T03:32:32.021Z,99.99
2023-01-26T03:33:32.009Z,99.99
2023-01-26T03:34:32.244Z,99.99
2023-01-26T03:35:32.002Z,99.99
2023-01-26T03:36:32.026Z,99.99
2023-01-26T03:37:31.979Z,99.99
2023-01-26T03:38:31.947Z,99.99
2023-01-26T03:39:32.013Z,99.99
2023-01-26T03:40:31.918Z,99.99
2023-01-26T03:41:31.907Z,99.99
2023-01-26T03:42:31.931Z,99.99
2023-01-26T03:43:31.885Z,99.99
2023-01-26T03:44:31.894Z,99.99
2023-01-26T03:45:31.861Z,99.99
2023-01-26T03:46:31.892Z,99.99
2023-01-26T03:47:31.850Z,99.99
2023-01-26T03:48:31.885Z,99.99
2023-01-26T03:49:31.842Z,99.99
2023-01-26T03:50:31.818Z,99.99
2023-01-26T03:51:31.814Z,99.99
2023-01-26T03:52:31.820Z,99.99
2023-01-26T03:53:31.807Z,99.99
2023-01-26T03:54:31.794Z,99.99
2023-01-26T03:55:31.783Z,99.99
2023-01-26T03:56:31.781Z,99.99
2023-01-26T03:57:31.761Z,99.99
2023-01-26T03:58:31.749Z,99.99
2023-01-26T03:59:31.768Z,99.99
2023-01-26T04:00:31.895Z,99.99
2023-01-26T04:01:31.693Z,99.99
2023-01-26T04:02:31.692Z,99.99
2023-01-26T04:03:31.695Z,99.99
2023-01-26T04:04:31.725Z,99.99
2023-01-26T04:05:31.662Z,99.99
2023-01-26T04:06:31.650Z,99.99
2023-01-26T04:07:31.741Z,99.99
2023-01-26T04:08:31.622Z,99.99
2023-01-26T04:09:31.653Z,99.99
2023-01-26T04:10:31.655Z,99.99
2023-01-26T04:11:31.603Z,99.99
2023-01-26T04:12:31.610Z,99.99
2023-01-26T04:13:31.581Z,99.99
2023-01-26T04:14:31.631Z,99.99
2023-01-26T04:15:31.614Z,99.99
2023-01-26T04:16:31.610Z,99.99
2023-01-26T04:17:31.569Z,99.99
2023-01-26T04:18:31.543Z,99.99
2023-01-26T04:19:31.553Z,99.99
2023-01-26T04:20:31.566Z,99.99
2023-01-26T04:21:31.497Z,99.99
2023-01-26T04:22:31.498Z,99.99
2023-01-26T04:23:31.472Z,99.99
2023-01-26T04:24:31.485Z,99.99
2023-01-26T04:25:31.470Z,99.99
2023-01-26T04:26:31.427Z,99.99
2023-01-26T04:27:31.450Z,99.99
2023-01-26T04:28:31.435Z,99.99
2023-01-26T04:29:31.455Z,99.99
2023-01-26T04:30:31.468Z,99.99
2023-01-26T04:31:31.478Z,99.99
2023-01-26T04:32:31.446Z,99.99
2023-01-26T04:33:31.387Z,99.99
2023-01-26T04:34:31.376Z,99.99
2023-01-26T04:35:31.351Z,99.99
2023-01-26T04:36:31.337Z,99.99
2023-01-26T04:37:31.316Z,99.99
2023-01-26T04:38:31.324Z,99.99
2023-01-26T04:39:31.311Z,99.99
2023-01-26T04:40:31.308Z,99.99
2023-01-26T04:41:31.294Z,99.99
2023-01-26T04:42:31.275Z,99.99
2023-01-26T04:43:31.315Z,99.99
2023-01-26T04:44:31.258Z,99.99
2023-01-26T04:45:31.258Z,99.99
2023-01-26T04:46:31.274Z,99.99
2023-01-26T04:47:31.230Z,99.99
2023-01-26T04:48:31.228Z,99.99
2023-01-26T04:49:31.241Z,99.99
2023-01-26T04:50:31.190Z,99.99
2023-01-26T04:51:31.234Z,99.99
2023-01-26T04:52:31.170Z,99.99
2023-01-26T04:53:31.147Z,99.99
2023-01-26T04:54:31.200Z,99.99
2023-01-26T04:55:31.138Z,99.99
2023-01-26T04:56:31.171Z,99.99
2023-01-26T04:57:31.131Z,99.99
2023-01-26T04:58:31.138Z,99.99
2023-01-26T04:59:31.173Z,99.99
2023-01-26T05:00:31.076Z,99.99
2023-01-26T05:01:31.087Z,99.99
2023-01-26T05:02:31.078Z,99.99
2023-01-26T05:03:31.095Z,99.99
2023-01-26T05:04:31.092Z,99.99
2023-01-26T05:05:31.061Z,99.99
2023-01-26T05:06:31.063Z,99.99
2023-01-26T05:07:31.013Z,99.99
2023-01-26T05:08:31.036Z,99.99
2023-01-26T05:09:31.057Z,99.99
2023-01-26T05:10:30.975Z,99.99
2023-01-26T05:11:30.974Z,99.99
2023-01-26T05:12:30.965Z,99.99
2023-01-26T05:13:30.974Z,99.99
2023-01-26T05:14:30.969Z,99.99
2023-01-26T05:15:30.923Z,99.99
2023-01-26T05:16:30.938Z,99.99
2023-01-26T05:17:30.919Z,99.99
2023-01-26T05:18:30.952Z,99.99
2023-01-26T05:19:30.895Z,99.99
2023-01-26T05:20:30.870Z,99.99
2023-01-26T05:21:30.855Z,99.99
2023-01-26T05:22:30.864Z,99.99
2023-01-26T05:23:30.861Z,99.99
2023-01-26T05:24:30.895Z,99.99
2023-01-26T05:25:30.820Z,99.99
2023-01-26T05:26:30.819Z,99.99
2023-01-26T05:27:30.794Z,99.99
2023-01-26T05:28:30.781Z,99.99
2023-01-26T05:29:30.843Z,99.99
2023-01-26T05:30:30.878Z,99.99
2023-01-26T05:31:30.786Z,99.99
2023-01-26T05:32:30.777Z,99.99
2023-01-26T05:33:30.734Z,99.99
2023-01-26T05:34:30.741Z,99.99
2023-01-26T05:35:30.743Z,99.99
2023-01-26T05:36:30.736Z,99.99
2023-01-26T05:37:30.700Z,99.99
2023-01-26T05:38:30.744Z,99.99
2023-01-26T05:39:30.672Z,99.99
2023-01-26T05:40:30.672Z,99.99
2023-01-26T05:41:30.664Z,99.99
2023-01-26T05:42:30.639Z,99.99
2023-01-26T05:43:30.665Z,99.99
2023-01-26T05:44:30.658Z,99.99
2023-01-26T05:45:30.709Z,99.99
2023-01-26T05:46:30.625Z,99.99
2023-01-26T05:47:30.616Z,99.99
2023-01-26T05:48:30.656Z,99.99
2023-01-26T05:49:30.609Z,99.99
2023-01-26T05:50:30.560Z,99.99
2023-01-26T05:51:30.627Z,99.99
2023-01-26T05:52:30.549Z,99.99
2023-01-26T05:53:30.552Z,99.99
2023-01-26T05:54:30.528Z,99.99
2023-01-26T05:55:30.530Z,99.99
2023-01-26T05:56:30.529Z,99.99
2023-01-26T05:57:30.509Z,99.99
2023-01-26T05:58:30.486Z,99.99
2023-01-26T05:59:30.620Z,99.99
2023-01-26T06:00:30.468Z,99.99
2023-01-26T06:01:30.466Z,99.99
2023-01-26T06:02:30.446Z,99.99
2023-01-26T06:03:30.502Z,99.99
2023-01-26T06:04:30.536Z,99.99
2023-01-26T06:05:30.440Z,99.99
2023-01-26T06:06:30.419Z,99.99
2023-01-26T06:07:30.431Z,99.99
2023-01-26T06:08:30.376Z,99.99
2023-01-26T06:09:30.384Z,99.99
2023-01-26T06:10:30.351Z,99.99
2023-01-26T06:11:30.368Z,99.99
2023-01-26T06:12:30.338Z,99.99
2023-01-26T06:13:30.371Z,99.99
2023-01-26T06:14:30.341Z,99.99
2023-01-26T06:15:30.303Z,99.99
2023-01-26T06:16:30.372Z,99.99
2023-01-26T06:17:30.331Z,99.99
2023-01-26T06:18:30.279Z,99.99
2023-01-26T06:19:30.257Z,99.99
2023-01-26T06:20:30.265Z,99.99
2023-01-26T06:21:30.262Z,99.99
2023-01-26T06:22:30.262Z,99.99
2023-01-26T06:23:30.229Z,99.99
2023-01-26T06:24:30.294Z,99.99
2023-01-26T06:25:30.209Z,99.99
2023-01-26T06:26:30.215Z,99.99
2023-01-26T06:27:30.195Z,99.99
2023-01-26T06:28:30.168Z,99.99
2023-01-26T06:29:30.173Z,99.99
2023-01-26T06:30:30.381Z,99.99
2023-01-26T06:31:30.265Z,99.99
2023-01-26T06:32:30.133Z,99.99
2023-01-26T06:33:30.142Z,99.99
2023-01-26T06:34:30.131Z,99.99
2023-01-26T06:35:30.114Z,99.99
2023-01-26T06:36:30.218Z,99.99
2023-01-26T06:37:30.124Z,99.99
2023-01-26T06:38:30.077Z,99.99
2023-01-26T06:39:30.056Z,99.99
2023-01-26T06:40:30.040Z,99.99
2023-01-26T06:41:30.052Z,99.99
2023-01-26T06:42:30.088Z,99.99
2023-01-26T06:43:30.095Z,99.99
2023-01-26T06:44:30.036Z,99.99
2023-01-26T06:45:29.989Z,99.99
2023-01-26T06:46:30.008Z,99.99
2023-01-26T06:47:29.997Z,99.99
2023-01-26T06:48:29.954Z,99.99
2023-01-26T06:49:30.014Z,99.99
2023-01-26T06:50:29.933Z,99.99
2023-01-26T06:51:29.943Z,99.99
2023-01-26T06:52:29.916Z,99.99
2023-01-26T06:53:29.918Z,99.99
2023-01-26T06:54:29.919Z,99.99
2023-01-26T06:55:29.974Z,99.99
2023-01-26T06:56:29.883Z,99.99
2023-01-26T06:57:29.862Z,99.99
2023-01-26T06:58:29.872Z,99.99
2023-01-26T06:59:29.847Z,99.99
2023-01-26T07:00:29.831Z,99.99
2023-01-26T07:01:29.935Z,99.99
2023-01-26T07:02:30.007Z,99.99
2023-01-26T07:03:29.825Z,99.99
2023-01-26T07:04:29.825Z,99.99
2023-01-26T07:05:29.813Z,99.99
2023-01-26T07:06:29.773Z,99.99
2023-01-26T07:07:29.773Z,99.99
2023-01-26T07:08:29.805Z,99.99
2023-01-26T07:09:29.834Z,99.99
2023-01-26T07:10:29.744Z,99.99
2023-01-26T07:11:29.746Z,99.99
2023-01-26T07:12:29.743Z,99.99
2023-01-26T07:13:29.741Z,99.99
2023-01-26T07:14:29.755Z,99.99
2023-01-26T07:15:29.731Z,99.99
2023-01-26T07:16:31.443Z,99.99
2023-01-26T07:17:29.798Z,99.99
2023-01-26T07:18:29.646Z,99.99
2023-01-26T07:19:29.788Z,99.99
2023-01-26T07:20:29.640Z,99.99
2023-01-26T07:21:29.640Z,99.99
2023-01-26T07:22:29.770Z,99.99
2023-01-26T07:23:29.604Z,99.99
2023-01-26T07:24:29.622Z,99.99
2023-01-26T07:25:29.637Z,99.99
2023-01-26T07:26:29.601Z,99.99
2023-01-26T07:27:29.593Z,99.99
2023-01-26T07:28:29.603Z,99.99
2023-01-26T07:29:29.630Z,99.99
2023-01-26T07:30:29.639Z,99.99
2023-01-26T07:31:29.593Z,99.99
2023-01-26T07:32:29.533Z,99.99
2023-01-26T07:33:29.502Z,99.99
2023-01-26T07:34:29.521Z,99.99
2023-01-26T07:35:29.506Z,99.99
2023-01-26T07:36:29.480Z,99.99
2023-01-26T07:37:29.475Z,99.99
2023-01-26T07:38:29.495Z,99.99
2023-01-26T07:39:29.437Z,99.99
2023-01-26T07:40:29.478Z,99.99
2023-01-26T07:41:29.424Z,99.99
2023-01-26T07:42:32.182Z,99.99
2023-01-26T07:43:29.829Z,99.99
2023-01-26T07:44:29.947Z,99.99
2023-01-26T07:45:29.601Z,99.99
2023-01-26T07:46:30.245Z,99.99
2023-01-26T07:47:29.407Z,99.99
2023-01-26T07:48:30.342Z,99.99
2023-01-26T07:49:29.522Z,99.99
2023-01-26T07:50:29.476Z,99.99
2023-01-26T07:51:29.609Z,99.99
2023-01-26T07:52:29.337Z,99.99
2023-01-26T07:53:29.405Z,99.99
2023-01-26T07:54:29.393Z,99.99
2023-01-26T07:55:29.262Z,99.99
2023-01-26T07:56:29.253Z,99.99
2023-01-26T07:57:29.283Z,99.99
2023-01-26T07:58:29.233Z,99.99
2023-01-26T07:59:29.294Z,99.99
2023-01-26T08:00:29.247Z,99.99
2023-01-26T08:01:29.260Z,99.99
2023-01-26T08:02:29.236Z,99.99
2023-01-26T08:03:29.192Z,99.99
2023-01-26T08:04:29.237Z,99.99
2023-01-26T08:05:29.221Z,99.99
2023-01-26T08:06:29.209Z,99.99
2023-01-26T08:07:29.145Z,99.99
2023-01-26T08:08:29.138Z,99.99
2023-01-26T08:09:29.197Z,99.99
2023-01-26T08:10:29.454Z,99.99
2023-01-26T08:11:29.134Z,99.99
2023-01-26T08:12:29.105Z,99.99
2023-01-26T08:13:35.399Z,99.99
2023-01-26T08:14:45.164Z,99.99
2023-01-26T08:15:30.140Z,99.99
2023-01-26T08:16:29.155Z,99.99
2023-01-26T08:17:29.055Z,99.99
2023-01-26T08:18:29.052Z,99.99
2023-01-26T08:19:29.162Z,99.99
2023-01-26T08:20:29.047Z,99.99
2023-01-26T08:21:29.006Z,99.99
2023-01-26T08:22:29.010Z,99.99
2023-01-26T08:23:29.022Z,99.99
2023-01-26T08:24:29.041Z,99.99
2023-01-26T08:25:29.001Z,99.99
2023-01-26T08:26:28.940Z,99.99
2023-01-26T08:27:28.949Z,99.99
2023-01-26T08:28:28.948Z,99.99
2023-01-26T08:29:28.941Z,99.99
2023-01-26T08:30:29.049Z,99.99
2023-01-26T08:31:28.980Z,99.99
2023-01-26T08:32:28.900Z,99.99
2023-01-26T08:33:28.912Z,99.99
2023-01-26T08:34:28.891Z,99.99
2023-01-26T08:35:28.908Z,99.99
2023-01-26T08:36:28.883Z,99.99
2023-01-26T08:37:28.826Z,99.99
2023-01-26T08:38:28.930Z,99.99
2023-01-26T08:39:28.869Z,99.99
2023-01-26T08:40:28.888Z,99.99
2023-01-26T08:41:28.827Z,99.99
2023-01-26T08:42:28.845Z,99.99
2023-01-26T08:43:28.821Z,99.99
2023-01-26T08:44:28.798Z,99.99
2023-01-26T08:45:28.790Z,99.99
2023-01-26T08:46:28.758Z,99.99
2023-01-26T08:47:28.763Z,99.99
2023-01-26T08:48:28.728Z,99.99
2023-01-26T08:49:28.722Z,99.99
2023-01-26T08:50:28.738Z,99.99
2023-01-26T08:51:28.685Z,99.99
2023-01-26T08:52:28.710Z,99.99
2023-01-26T08:53:28.726Z,99.99
2023-01-26T08:54:28.823Z,99.99
2023-01-26T08:55:28.698Z,99.99
2023-01-26T08:56:28.659Z,99.99
2023-01-26T08:57:28.652Z,99.99
2023-01-26T08:58:28.614Z,99.99
2023-01-26T08:59:28.651Z,99.99
2023-01-26T09:00:28.607Z,99.99
2023-01-26T09:01:28.653Z,99.99
2023-01-26T09:02:28.780Z,99.99
2023-01-26T09:03:28.560Z,99.99
2023-01-26T09:04:28.671Z,99.99
2023-01-26T09:05:28.568Z,99.99
2023-01-26T09:06:28.580Z,99.99
2023-01-26T09:07:28.517Z,99.99
2023-01-26T09:08:28.530Z,99.99
2023-01-26T09:09:28.593Z,99.99
2023-01-26T09:10:28.478Z,99.99
2023-01-26T09:11:28.498Z,99.99
2023-01-26T09:12:28.464Z,99.99
2023-01-26T09:13:28.536Z,99.99
2023-01-26T09:14:28.534Z,99.99
2023-01-26T09:15:28.447Z,99.99
2023-01-26T09:16:28.546Z,99.99
2023-01-26T09:17:28.451Z,99.99
2023-01-26T09:18:28.437Z,99.99
2023-01-26T09:19:30.742Z,99.99
2023-01-26T09:20:28.377Z,99.99
2023-01-26T09:21:28.403Z,99.99
2023-01-26T09:22:28.420Z,99.99
2023-01-26T09:23:28.392Z,99.99
2023-01-26T09:24:28.483Z,99.99
2023-01-26T09:25:28.325Z,99.99
2023-01-26T09:26:28.324Z,99.99
2023-01-26T09:27:28.338Z,99.99
2023-01-26T09:28:28.445Z,99.99
2023-01-26T09:29:28.356Z,99.99
2023-01-26T09:30:28.573Z,99.99
2023-01-26T09:31:28.440Z,99.99
2023-01-26T09:32:28.252Z,99.99
2023-01-26T09:33:28.242Z,99.99
2023-01-26T09:34:28.285Z,99.99
2023-01-26T09:35:28.283Z,99.99
2023-01-26T09:36:28.215Z,99.99
2023-01-26T09:37:28.194Z,99.99
2023-01-26T09:38:28.184Z,99.99
2023-01-26T09:39:28.313Z,99.99
2023-01-26T09:40:28.198Z,99.99
2023-01-26T09:41:28.229Z,99.99
2023-01-26T09:42:28.204Z,99.99
2023-01-26T09:43:28.137Z,99.99
2023-01-26T09:44:28.936Z,99.99
2023-01-26T09:45:28.130Z,99.99
2023-01-26T09:46:28.212Z,99.99
2023-01-26T09:47:28.153Z,99.99
2023-01-26T09:48:28.123Z,99.99
2023-01-26T09:49:28.395Z,99.99
2023-01-26T09:50:28.090Z,99.99
2023-01-26T09:51:28.071Z,99.99
2023-01-26T09:52:28.048Z,99.99
2023-01-26T09:53:28.159Z,99.99
2023-01-26T09:54:28.133Z,99.99
2023-01-26T09:55:28.014Z,99.99
2023-01-26T09:56:28.065Z,99.99
2023-01-26T09:57:28.060Z,99.99
2023-01-26T09:58:27.981Z,99.99
2023-01-26T09:59:28.236Z,99.99
2023-01-26T10:00:28.000Z,99.99
2023-01-26T10:01:28.064Z,99.99
2023-01-26T10:02:27.985Z,99.99
2023-01-26T10:03:27.921Z,99.99
2023-01-26T10:04:27.984Z,99.99
2023-01-26T10:05:28.024Z,99.99
2023-01-26T10:06:27.933Z,99.99
2023-01-26T10:07:27.951Z,99.99
2023-01-26T10:08:27.915Z,99.99
2023-01-26T10:09:27.874Z,99.99
2023-01-26T10:10:27.882Z,99.85
2023-01-26T10:11:27.879Z,99.99
2023-01-26T10:12:27.855Z,99.99
2023-01-26T10:13:27.858Z,99.99
2023-01-26T10:14:27.835Z,99.85
2023-01-26T10:15:27.895Z,99.99
2023-01-26T10:16:27.780Z,99.91
2023-01-26T10:17:27.853Z,99.99
2023-01-26T10:18:27.759Z,99.54
2023-01-26T10:19:27.801Z,99.44
2023-01-26T10:20:27.787Z,98.92
2023-01-26T10:21:27.802Z,99.18
2023-01-26T10:22:27.726Z,99.71
2023-01-26T10:23:27.720Z,99.29
2023-01-26T10:24:27.814Z,99.08
2023-01-26T10:25:27.730Z,98.46
2023-01-26T10:26:27.735Z,98.50
2023-01-26T10:27:27.714Z,98.50
2023-01-26T10:28:27.740Z,98.25
2023-01-26T10:29:27.741Z,97.94
2023-01-26T10:30:27.695Z,98.50
2023-01-26T10:31:27.773Z,97.77
2023-01-26T10:32:27.786Z,97.88
2023-01-26T10:33:27.702Z,97.88
2023-01-26T10:34:27.690Z,98.14
2023-01-26T10:35:27.593Z,98.04
2023-01-26T10:36:27.610Z,96.94
2023-01-26T10:37:27.634Z,97.77
2023-01-26T10:38:27.573Z,97.94
2023-01-26T10:39:27.620Z,98.19
2023-01-26T10:40:27.748Z,98.14
2023-01-26T10:41:27.537Z,97.31
2023-01-26T10:42:27.570Z,97.46
2023-01-26T10:43:27.554Z,97.25
2023-01-26T10:44:27.559Z,97.25
2023-01-26T10:45:27.551Z,97.67
2023-01-26T10:46:27.547Z,96.94
2023-01-26T10:47:27.498Z,97.04
2023-01-26T10:48:27.516Z,96.73
2023-01-26T10:49:27.512Z,97.25
2023-01-26T10:50:27.464Z,97.14
2023-01-26T10:51:27.477Z,97.52
2023-01-26T10:52:27.429Z,97.41
2023-01-26T10:53:27.481Z,97.94
2023-01-26T10:54:27.539Z,97.94
2023-01-26T10:55:27.374Z,97.31
2023-01-26T10:56:27.427Z,96.89
2023-01-26T10:57:27.364Z,97.52
2023-01-26T10:58:27.416Z,96.79
2023-01-26T10:59:27.422Z,97.00
2023-01-26T11:00:27.396Z,96.69
2023-01-26T11:01:27.418Z,96.89
2023-01-26T11:02:27.416Z,97.16
2023-01-26T11:03:27.320Z,97.31
2023-01-26T11:04:27.316Z,96.48
2023-01-26T11:05:27.415Z,96.53
2023-01-26T11:06:27.356Z,96.37
2023-01-26T11:07:27.317Z,96.26
2023-01-26T11:08:27.324Z,95.85
2023-01-26T11:09:27.241Z,95.95
2023-01-26T11:10:27.287Z,96.26
2023-01-26T11:11:27.308Z,95.95
2023-01-26T11:12:27.209Z,96.58
2023-01-26T11:13:27.232Z,96.69
2023-01-26T11:14:27.201Z,96.58
2023-01-26T11:15:27.228Z,96.64
2023-01-26T11:16:27.217Z,96.43
2023-01-26T11:17:27.139Z,96.22
2023-01-26T11:18:27.139Z,96.33
2023-01-26T11:19:27.130Z,96.95
2023-01-26T11:20:27.150Z,96.75
2023-01-26T11:21:27.166Z,96.01
2023-01-26T11:22:27.170Z,96.33
2023-01-26T11:23:27.088Z,96.53
2023-01-26T11:24:27.163Z,95.85
2023-01-26T11:25:27.168Z,95.43
2023-01-26T11:26:27.058Z,96.22
2023-01-26T11:27:27.145Z,95.70
2023-01-26T11:28:27.173Z,96.33
2023-01-26T11:29:29.821Z,96.01
2023-01-26T11:30:27.016Z,95.87
2023-01-26T11:31:27.137Z,96.12
2023-01-26T11:32:27.022Z,96.18
2023-01-26T11:33:26.980Z,95.81
2023-01-26T11:34:27.001Z,95.81
2023-01-26T11:35:26.964Z,95.29
2023-01-26T11:36:26.975Z,95.33
2023-01-26T11:37:26.971Z,95.12
2023-01-26T11:38:27.006Z,94.49
2023-01-26T11:39:27.010Z,95.02
2023-01-26T11:40:26.914Z,94.60
2023-01-26T11:41:26.906Z,94.70
2023-01-26T11:42:26.875Z,94.81
2023-01-26T11:43:26.899Z,95.12
2023-01-26T11:44:27.375Z,95.54
2023-01-26T11:45:26.899Z,95.85
2023-01-26T11:46:26.896Z,95.23
2023-01-26T11:47:26.829Z,95.12
2023-01-26T11:48:26.823Z,94.70
2023-01-26T11:49:26.831Z,94.70
2023-01-26T11:50:26.887Z,94.92
2023-01-26T11:51:26.780Z,94.75
2023-01-26T11:52:26.831Z,94.81
2023-01-26T11:53:26.802Z,95.33
2023-01-26T11:54:26.779Z,95.12
2023-01-26T11:55:26.744Z,95.33
2023-01-26T11:56:26.810Z,95.43
2023-01-26T11:57:26.801Z,95.12
2023-01-26T11:58:26.740Z,94.81
2023-01-26T11:59:26.767Z,95.06
2023-01-26T12:00:30.517Z,95.12
2023-01-26T12:01:26.694Z,95.12
2023-01-26T12:02:27.897Z,95.02
2023-01-26T12:03:26.749Z,95.02
2023-01-26T12:04:26.778Z,95.12
2023-01-26T12:05:26.737Z,95.33
2023-01-26T12:06:26.656Z,95.33
2023-01-26T12:07:26.617Z,94.92
2023-01-26T12:08:26.634Z,94.60
2023-01-26T12:09:26.751Z,94.39
2023-01-26T12:10:26.582Z,94.39
2023-01-26T12:11:26.580Z,94.29
2023-01-26T12:12:26.648Z,94.85
2023-01-26T12:13:26.596Z,94.60
2023-01-26T12:14:26.567Z,95.02
2023-01-26T12:15:26.648Z,94.75
2023-01-26T12:16:26.543Z,94.81
2023-01-26T12:17:26.555Z,95.43
2023-01-26T12:18:42.215Z,95.33
2023-01-26T12:19:27.510Z,95.33
2023-01-26T12:20:26.527Z,95.43
2023-01-26T12:21:26.475Z,96.06
2023-01-26T12:22:26.475Z,95.70
2023-01-26T12:23:26.496Z,95.54
2023-01-26T12:24:54.169Z,95.12
2023-01-26T12:25:27.451Z,95.23
2023-01-26T12:26:26.472Z,95.23
2023-01-26T12:27:26.418Z,95.23
2023-01-26T12:28:26.409Z,95.33
2023-01-26T12:29:26.419Z,95.33
2023-01-26T12:30:26.531Z,95.58
2023-01-26T12:31:26.510Z,95.02
2023-01-26T12:32:26.419Z,95.48
2023-01-26T12:33:26.408Z,94.64
2023-01-26T12:34:26.454Z,95.33
2023-01-26T12:35:26.322Z,95.27
2023-01-26T12:36:26.311Z,96.06
2023-01-26T12:37:26.298Z,95.75
2023-01-26T12:38:26.331Z,95.54
2023-01-26T12:39:26.377Z,95.33
2023-01-26T12:40:26.348Z,95.37
2023-01-26T12:41:26.346Z,95.95
2023-01-26T12:42:26.306Z,95.85
2023-01-26T12:43:26.231Z,95.75
2023-01-26T12:44:26.251Z,95.54
2023-01-26T12:45:26.234Z,95.64
2023-01-26T12:46:26.282Z,95.33
2023-01-26T12:47:26.202Z,95.37
2023-01-26T12:48:26.378Z,95.58
2023-01-26T12:49:26.258Z,96.21
2023-01-26T12:50:26.198Z,95.37
2023-01-26T12:51:26.172Z,95.58
2023-01-26T12:52:26.166Z,95.17